Time;durP1;ratioP1;P1;durP2;ratioP2;P2;SDS_P1;SDS_P2;PMS_P1;PMS_P2;Temp;Humidity;BMP_temperature;BMP_pressure;BME280_temperature;BME280_humidity;BME280_pressure;Samples;Min_cycle;Max_cycle;Signal;HPM_P1;HPM_P2
2023/03/18 00:01:10;;;;;;;4.93;4.47;;;23.10;52.00;;;;;;5073912;28;20465;-82
2023/03/18 00:03:38;;;;;;;4.17;3.77;;;23.10;52.00;;;;;;5074587;28;20458;-82
2023/03/18 00:06:10;;;;;;;4.57;4.17;;;23.10;52.00;;;;;;5073741;28;20503;-83
2023/03/18 00:08:39;;;;;;;4.90;4.40;;;23.10;52.00;;;;;;5072963;28;20477;-82
2023/03/18 00:11:08;;;;;;;5.13;4.63;;;23.10;52.00;;;;;;5073201;28;21012;-82
2023/03/18 00:13:37;;;;;;;5.30;4.80;;;23.10;52.00;;;;;;5073781;28;20536;-83
2023/03/18 00:16:07;;;;;;;5.63;4.17;;;23.10;52.00;;;;;;5073158;28;20560;-82
2023/03/18 00:18:36;;;;;;;4.20;3.90;;;23.10;52.00;;;;;;5071934;28;20442;-82
2023/03/18 00:21:05;;;;;;;4.47;4.07;;;23.00;52.00;;;;;;5059935;28;20537;-82
2023/03/18 00:23:35;;;;;;;4.40;4.00;;;23.00;52.00;;;;;;5072406;28;20446;-82
2023/03/18 00:26:05;;;;;;;4.40;4.00;;;23.10;52.00;;;;;;5063701;28;20456;-82
2023/03/18 00:28:33;;;;;;;4.67;4.27;;;23.10;52.00;;;;;;5076739;28;20470;-82
2023/03/18 00:31:07;;;;;;;5.00;4.63;;;23.10;52.00;;;;;;5054108;28;20466;-82
2023/03/18 00:33:36;;;;;;;4.47;4.17;;;23.10;52.00;;;;;;5071902;28;20457;-82
2023/03/18 00:36:08;;;;;;;3.90;3.60;;;23.10;52.00;;;;;;5071078;28;20457;-81
2023/03/18 00:38:38;;;;;;;4.23;3.87;;;23.10;52.00;;;;;;5069123;28;20500;-82
2023/03/18 00:41:10;;;;;;;4.90;4.50;;;23.10;52.00;;;;;;5072119;28;20470;-83
2023/03/18 00:43:45;;;;;;;5.50;5.00;;;23.10;52.00;;;;;;5071844;28;20507;-82
2023/03/18 00:46:16;;;;;;;4.63;4.23;;;23.00;52.00;;;;;;5072531;28;20464;-82
2023/03/18 00:48:46;;;;;;;4.20;3.90;;;23.10;52.00;;;;;;5071125;28;20576;-81
2023/03/18 00:51:16;;;;;;;4.40;4.00;;;23.10;52.00;;;;;;5072385;28;20839;-82
2023/03/18 00:53:49;;;;;;;4.67;4.27;;;23.10;52.00;;;;;;5068944;28;20481;-81
2023/03/18 00:56:19;;;;;;;5.43;5.07;;;23.00;52.00;;;;;;5063658;28;20924;-82
2023/03/18 00:58:47;;;;;;;4.50;4.07;;;23.00;52.00;;;;;;5054993;28;20516;-81
2023/03/18 01:01:17;;;;;;;4.17;3.87;;;23.00;52.00;;;;;;5039710;28;20549;-82
2023/03/18 01:03:46;;;;;;;4.30;3.90;;;23.00;52.00;;;;;;5067063;28;20862;-83
2023/03/18 01:06:17;;;;;;;4.67;4.27;;;23.00;51.90;;;;;;5053984;28;20450;-83
2023/03/18 01:08:48;;;;;;;4.60;4.10;;;23.00;52.00;;;;;;5061855;28;20471;-82
2023/03/18 01:11:17;;;;;;;4.57;4.27;;;23.00;52.00;;;;;;5073736;28;20462;-82
2023/03/18 01:13:46;;;;;;;4.90;4.20;;;23.00;52.00;;;;;;5070778;28;20945;-83
2023/03/18 01:16:15;;;;;;;4.70;4.40;;;23.00;52.00;;;;;;5071949;28;20945;-82
2023/03/18 01:18:43;;;;;;;4.57;4.17;;;23.00;52.00;;;;;;5070301;28;20464;-81
2023/03/18 01:21:12;;;;;;;4.13;3.80;;;23.00;51.90;;;;;;5058502;28;20961;-81
2023/03/18 01:23:49;;;;;;;4.40;4.00;;;23.00;52.00;;;;;;5060025;28;20485;-82
2023/03/18 01:26:18;;;;;;;4.20;3.83;;;23.00;52.00;;;;;;5068498;28;20516;-81
2023/03/18 01:28:47;;;;;;;6.23;4.40;;;23.00;52.00;;;;;;5064600;28;20474;-81
2023/03/18 01:31:15;;;;;;;4.27;3.87;;;23.00;52.00;;;;;;5047246;28;20466;-82
2023/03/18 01:33:46;;;;;;;4.90;4.50;;;23.00;52.00;;;;;;5039552;28;20470;-82
2023/03/18 01:36:14;;;;;;;3.67;3.37;;;22.90;52.00;;;;;;5070791;28;20454;-81
2023/03/18 01:38:45;;;;;;;4.57;4.17;;;22.90;52.00;;;;;;5053301;28;20493;-84
2023/03/18 01:41:17;;;;;;;3.73;3.50;;;22.90;52.00;;;;;;5064122;28;20462;-82
2023/03/18 01:43:46;;;;;;;4.30;4.00;;;22.90;52.00;;;;;;5053894;28;20458;-81
2023/03/18 01:46:33;;;;;;;3.47;3.10;;;22.90;52.00;;;;;;5059180;28;20500;-81
2023/03/18 01:49:07;;;;;;;4.30;4.00;;;22.90;52.00;;;;;;5066384;28;20505;-82
2023/03/18 01:51:36;;;;;;;4.53;4.10;;;22.90;52.00;;;;;;5071491;28;20450;-81
2023/03/18 01:54:09;;;;;;;4.40;4.10;;;22.90;52.00;;;;;;5070850;28;20450;-82
2023/03/18 01:56:41;;;;;;;4.50;4.10;;;22.90;52.00;;;;;;5071318;28;20450;-82
2023/03/18 01:59:11;;;;;;;3.67;3.40;;;22.90;52.00;;;;;;5064012;28;20482;-82
2023/03/18 02:01:45;;;;;;;4.90;4.50;;;22.90;52.00;;;;;;5062073;28;20457;-81
2023/03/18 02:04:15;;;;;;;4.30;3.90;;;22.90;52.00;;;;;;5050335;28;20826;-81
2023/03/18 02:06:43;;;;;;;4.47;4.07;;;22.90;52.00;;;;;;5056849;28;20532;-82
2023/03/18 02:09:12;;;;;;;4.53;4.23;;;22.90;52.00;;;;;;5052661;28;20482;-82
2023/03/18 02:11:48;;;;;;;5.80;5.20;;;22.90;52.00;;;;;;5053263;28;20465;-82
2023/03/18 02:14:22;;;;;;;5.80;3.80;;;22.90;52.00;;;;;;5052656;28;20461;-81
2023/03/18 02:16:56;;;;;;;3.93;3.63;;;22.90;52.00;;;;;;5053002;28;20466;-81
2023/03/18 02:19:37;;;;;;;4.53;4.13;;;22.90;52.00;;;;;;5052540;28;20460;-82
2023/03/18 02:22:16;;;;;;;4.83;4.43;;;22.90;52.00;;;;;;5052233;28;20456;-82
2023/03/18 02:24:53;;;;;;;4.27;3.97;;;22.90;52.00;;;;;;5060551;28;20815;-82
2023/03/18 02:27:23;;;;;;;4.17;3.87;;;22.90;52.00;;;;;;5053165;28;20469;-82
2023/03/18 02:29:55;;;;;;;3.30;3.10;;;22.90;52.00;;;;;;5050648;28;20478;-84
2023/03/18 02:32:27;;;;;;;3.90;3.60;;;22.90;52.00;;;;;;5052462;28;20469;-82
2023/03/18 02:34:57;;;;;;;3.83;3.60;;;22.90;52.00;;;;;;5071103;28;20457;-82
2023/03/18 02:37:25;;;;;;;3.97;3.67;;;22.90;52.00;;;;;;5059747;28;20797;-82
2023/03/18 02:39:53;;;;;;;4.00;3.50;;;22.90;52.00;;;;;;5064342;28;20470;-82
2023/03/18 02:42:31;;;;;;;3.90;3.70;;;22.90;52.00;;;;;;5052797;28;20875;-83
2023/03/18 02:45:01;;;;;;;4.23;3.83;;;22.90;52.00;;;;;;5052367;28;20512;-82
2023/03/18 02:47:42;;;;;;;4.60;4.20;;;22.90;51.90;;;;;;5052529;28;20493;-81
2023/03/18 02:50:11;;;;;;;3.70;3.40;;;22.90;51.90;;;;;;5052063;28;20478;-82
2023/03/18 02:52:40;;;;;;;3.77;3.53;;;22.90;51.90;;;;;;5052003;28;20549;-82
2023/03/18 02:55:09;;;;;;;3.80;3.60;;;22.90;51.90;;;;;;5056127;28;20474;-82
2023/03/18 02:57:39;;;;;;;4.30;4.00;;;22.90;51.90;;;;;;5039832;28;20447;-82
2023/03/18 03:00:09;;;;;;;4.00;3.70;;;22.90;51.90;;;;;;5065877;28;20511;-82
2023/03/18 03:02:38;;;;;;;3.67;3.37;;;22.90;51.90;;;;;;5053720;28;20534;-85
2023/03/18 03:05:08;;;;;;;4.63;4.27;;;22.80;51.90;;;;;;5051991;28;20454;-82
2023/03/18 03:07:36;;;;;;;4.27;3.97;;;22.80;51.90;;;;;;5046935;28;20462;-83
2023/03/18 03:10:07;;;;;;;4.80;4.40;;;22.80;51.90;;;;;;5048211;28;20477;-82
2023/03/18 03:12:38;;;;;;;4.33;3.80;;;22.80;51.90;;;;;;5055261;28;20465;-84
2023/03/18 03:15:09;;;;;;;3.90;3.60;;;22.80;51.90;;;;;;5055913;28;20474;-82
2023/03/18 03:17:42;;;;;;;3.90;3.60;;;22.80;51.90;;;;;;5051316;28;20550;-82
2023/03/18 03:20:12;;;;;;;4.10;3.80;;;22.80;51.90;;;;;;5068040;28;20507;-85
2023/03/18 03:22:41;;;;;;;3.97;3.57;;;22.80;51.90;;;;;;5061084;28;20534;-81
2023/03/18 03:25:10;;;;;;;4.10;3.80;;;22.80;51.90;;;;;;5054991;28;20489;-82
2023/03/18 03:27:40;;;;;;;3.97;3.60;;;22.80;51.90;;;;;;5073589;28;20461;-83
2023/03/18 03:30:10;;;;;;;4.50;4.20;;;22.80;51.90;;;;;;5055521;28;20955;-84
2023/03/18 03:32:38;;;;;;;5.63;3.90;;;22.80;51.90;;;;;;5053080;28;20482;-82
2023/03/18 03:35:08;;;;;;;4.67;4.07;;;22.80;51.80;;;;;;5055258;28;21004;-82
2023/03/18 03:37:37;;;;;;;5.20;3.60;;;22.80;51.80;;;;;;5045964;28;20454;-83
2023/03/18 03:40:07;;;;;;;4.33;3.93;;;22.80;51.80;;;;;;5055500;28;20572;-83
2023/03/18 03:42:35;;;;;;;4.33;3.43;;;22.80;51.80;;;;;;5070683;28;21008;-83
2023/03/18 03:45:06;;;;;;;3.70;3.40;;;22.80;51.70;;;;;;5072005;28;20488;-84
2023/03/18 03:47:35;;;;;;;3.87;3.57;;;22.80;51.70;;;;;;5070574;28;20503;-82
2023/03/18 03:50:05;;;;;;;3.87;3.57;;;22.80;51.70;;;;;;5055054;28;20506;-82
2023/03/18 03:52:34;;;;;;;4.43;3.80;;;22.80;51.70;;;;;;5055144;28;20453;-82
2023/03/18 03:55:03;;;;;;;5.00;4.27;;;22.80;51.70;;;;;;5073061;28;20458;-82
2023/03/18 03:57:31;;;;;;;4.30;4.00;;;22.80;51.70;;;;;;5055657;28;20468;-82
2023/03/18 03:59:59;;;;;;;4.17;3.87;;;22.80;51.70;;;;;;5072663;28;20529;-82
2023/03/18 04:02:48;;;;;;;4.10;3.73;;;22.80;51.70;;;;;;5073084;28;20851;-84
2023/03/18 04:05:21;;;;;;;4.07;3.77;;;22.80;51.70;;;;;;5067170;28;20500;-83
2023/03/18 04:07:50;;;;;;;4.53;4.20;;;22.70;51.70;;;;;;5053414;28;20462;-83
2023/03/18 04:10:22;;;;;;;4.57;4.17;;;22.70;51.80;;;;;;5053558;28;20466;-87
2023/03/18 04:12:50;;;;;;;3.83;3.53;;;22.70;51.70;;;;;;5055197;28;20461;-82
2023/03/18 04:15:20;;;;;;;3.40;3.10;;;22.80;51.70;;;;;;5072341;28;20937;-82
2023/03/18 04:17:53;;;;;;;3.57;3.30;;;22.70;51.70;;;;;;5055212;28;20516;-82
2023/03/18 04:20:22;;;;;;;4.17;3.87;;;22.70;51.70;;;;;;5054007;28;20536;-82
2023/03/18 04:22:50;;;;;;;3.87;3.53;;;22.70;51.70;;;;;;5070782;28;20980;-84
2023/03/18 04:25:21;;;;;;;4.27;3.87;;;22.80;51.70;;;;;;5056671;28;21037;-82
2023/03/18 04:27:52;;;;;;;3.70;3.40;;;22.70;51.60;;;;;;5054195;28;20532;-85
2023/03/18 04:30:22;;;;;;;3.80;3.60;;;22.70;51.60;;;;;;5052709;28;20471;-83
2023/03/18 04:33:14;;;;;;;4.17;3.87;;;22.70;51.60;;;;;;5053647;28;20473;-85
2023/03/18 04:35:43;;;;;;;3.30;3.07;;;22.70;51.60;;;;;;5057568;28;20495;-82
2023/03/18 04:38:14;;;;;;;4.23;3.87;;;22.70;51.60;;;;;;5054136;28;20463;-84
2023/03/18 04:40:42;;;;;;;4.10;3.80;;;22.70;51.60;;;;;;5054928;28;20466;-82
2023/03/18 04:43:10;;;;;;;3.63;3.33;;;22.70;51.60;;;;;;5071432;28;20453;-82
2023/03/18 04:45:39;;;;;;;3.70;3.50;;;22.70;51.60;;;;;;5072158;28;20465;-82
2023/03/18 04:48:07;;;;;;;3.57;3.27;;;22.70;51.60;;;;;;5071741;28;20453;-82
2023/03/18 04:50:42;;;;;;;3.20;3.00;;;22.70;51.60;;;;;;5053846;28;20506;-83
2023/03/18 04:53:15;;;;;;;3.30;3.10;;;22.70;51.60;;;;;;5052349;28;20990;-82
2023/03/18 04:55:44;;;;;;;4.07;3.67;;;22.70;51.60;;;;;;5053419;28;20508;-82
2023/03/18 04:58:14;;;;;;;3.80;3.50;;;22.70;51.60;;;;;;5071682;28;20472;-83
2023/03/18 05:00:50;;;;;;;4.07;3.77;;;22.70;51.60;;;;;;5052770;28;20834;-82
2023/03/18 05:03:24;;;;;;;3.73;3.43;;;22.70;51.60;;;;;;5053654;28;20504;-84
2023/03/18 05:05:54;;;;;;;3.70;3.40;;;22.70;51.50;;;;;;5053890;28;20790;-83
2023/03/18 05:08:32;;;;;;;4.07;3.77;;;22.70;51.50;;;;;;5053496;28;20484;-82
2023/03/18 05:11:02;;;;;;;3.27;3.07;;;22.70;51.50;;;;;;5054201;28;20473;-82
2023/03/18 05:13:32;;;;;;;3.73;3.43;;;22.70;51.50;;;;;;5052475;28;20449;-82
2023/03/18 05:16:00;;;;;;;4.03;3.60;;;22.70;51.50;;;;;;5052999;28;20841;-82
2023/03/18 05:18:29;;;;;;;3.50;3.20;;;22.70;51.50;;;;;;5052583;28;20848;-83
2023/03/18 05:21:02;;;;;;;3.57;3.30;;;22.70;51.50;;;;;;5057057;28;20470;-82
2023/03/18 05:23:30;;;;;;;3.67;3.47;;;22.70;51.50;;;;;;5052767;28;20541;-83
2023/03/18 05:25:58;;;;;;;3.60;3.30;;;22.70;51.50;;;;;;5053164;28;20457;-82
2023/03/18 05:28:28;;;;;;;4.53;4.23;;;22.70;51.50;;;;;;5040244;28;20514;-82
2023/03/18 05:31:21;;;;;;;4.40;3.60;;;22.70;51.50;;;;;;5055938;28;20482;-82
2023/03/18 05:33:49;;;;;;;3.17;2.97;;;22.70;51.50;;;;;;5052119;28;20465;-85
2023/03/18 05:36:20;;;;;;;3.70;3.30;;;22.60;51.50;;;;;;5060722;28;20869;-82
2023/03/18 05:38:56;;;;;;;3.20;3.00;;;22.60;51.50;;;;;;5057141;28;20874;-82
2023/03/18 05:41:25;;;;;;;4.40;4.00;;;22.70;51.50;;;;;;5051089;28;20464;-83
2023/03/18 05:43:53;;;;;;;4.10;3.70;;;22.70;51.50;;;;;;5053195;28;20456;-82
2023/03/18 05:46:22;;;;;;;4.20;3.90;;;22.70;51.50;;;;;;5053301;28;20546;-83
2023/03/18 05:49:01;;;;;;;3.30;3.10;;;22.70;51.50;;;;;;5052551;28;20454;-81
2023/03/18 05:51:40;;;;;;;3.33;3.13;;;22.70;51.40;;;;;;5052910;28;20473;-84
2023/03/18 05:54:11;;;;;;;4.13;3.53;;;22.70;51.40;;;;;;5057009;28;20472;-82
2023/03/18 05:56:44;;;;;;;3.30;3.10;;;22.70;51.30;;;;;;5065185;28;20504;-82
2023/03/18 05:59:14;;;;;;;3.40;3.10;;;22.70;51.30;;;;;;5051591;28;21148;-81
2023/03/18 06:01:46;;;;;;;3.30;3.10;;;22.70;51.30;;;;;;5047194;28;20493;-82
2023/03/18 06:04:17;;;;;;;4.00;3.73;;;22.70;51.20;;;;;;5051941;28;20450;-82
2023/03/18 06:06:47;;;;;;;3.47;3.17;;;22.70;51.20;;;;;;5070834;28;20471;-83
2023/03/18 06:09:16;;;;;;;3.30;3.00;;;22.70;51.20;;;;;;5052399;28;20457;-83
2023/03/18 06:11:46;;;;;;;3.50;3.20;;;22.70;51.20;;;;;;5053279;28;20565;-82
2023/03/18 06:14:14;;;;;;;3.23;3.00;;;22.70;51.10;;;;;;5052512;28;20455;-82
2023/03/18 06:16:44;;;;;;;5.67;3.63;;;22.70;51.10;;;;;;5052991;28;20464;-82
2023/03/18 06:19:13;;;;;;;3.73;3.33;;;22.70;51.10;;;;;;5060181;28;20469;-83
2023/03/18 06:21:41;;;;;;;3.30;3.00;;;22.70;51.10;;;;;;5052230;28;20445;-82
2023/03/18 06:24:13;;;;;;;3.57;3.37;;;22.70;51.10;;;;;;5070041;28;21259;-82
2023/03/18 06:26:42;;;;;;;2.77;2.57;;;22.70;51.10;;;;;;5052997;28;20473;-82
2023/03/18 06:29:10;;;;;;;3.30;3.07;;;22.70;51.20;;;;;;5052454;28;20495;-83
2023/03/18 06:31:39;;;;;;;2.93;2.73;;;22.70;51.10;;;;;;5070693;28;20564;-82
2023/03/18 06:34:10;;;;;;;3.47;3.17;;;22.70;51.20;;;;;;5052087;28;21051;-81
2023/03/18 06:36:39;;;;;;;4.23;2.97;;;22.70;51.20;;;;;;5052513;28;20496;-81
2023/03/18 06:39:13;;;;;;;2.97;2.73;;;22.60;51.20;;;;;;5052636;28;20991;-82
2023/03/18 06:41:43;;;;;;;3.50;3.20;;;22.60;51.20;;;;;;5052443;28;20465;-81
2023/03/18 06:44:31;;;;;;;3.63;3.33;;;22.60;51.20;;;;;;5065356;28;20457;-82
2023/03/18 06:47:09;;;;;;;4.00;3.60;;;22.60;51.20;;;;;;5056229;28;20873;-86
2023/03/18 06:49:42;;;;;;;3.87;3.57;;;22.60;51.30;;;;;;5056171;28;20504;-82
2023/03/18 06:52:16;;;;;;;3.00;2.80;;;22.60;51.30;;;;;;5056618;28;20837;-82
2023/03/18 06:54:47;;;;;;;3.17;2.93;;;22.60;51.40;;;;;;5055906;28;20465;-82
2023/03/18 06:57:17;;;;;;;3.23;3.03;;;22.60;51.30;;;;;;5059107;28;20475;-82
2023/03/18 06:59:45;;;;;;;3.17;2.90;;;22.60;51.30;;;;;;5058515;28;20964;-82
2023/03/18 07:02:15;;;;;;;3.90;3.50;;;22.60;51.40;;;;;;5042381;28;20535;-83
2023/03/18 07:04:43;;;;;;;3.80;3.50;;;22.60;51.40;;;;;;5055643;28;20484;-82
2023/03/18 07:07:11;;;;;;;3.73;3.40;;;22.60;51.40;;;;;;5074239;28;20449;-82
2023/03/18 07:09:42;;;;;;;3.20;2.90;;;22.60;51.40;;;;;;5056213;28;20504;-82
2023/03/18 07:12:13;;;;;;;3.90;3.50;;;22.60;51.40;;;;;;5041358;28;20506;-82
2023/03/18 07:14:42;;;;;;;3.23;3.00;;;22.60;51.40;;;;;;5045216;28;20960;-83
2023/03/18 07:17:11;;;;;;;3.07;2.87;;;22.60;51.30;;;;;;5060525;28;20459;-82
2023/03/18 07:19:40;;;;;;;2.60;2.40;;;22.60;51.30;;;;;;5056789;28;20457;-82
2023/03/18 07:22:09;;;;;;;3.00;2.80;;;22.60;51.20;;;;;;5056167;28;20476;-86
2023/03/18 07:24:37;;;;;;;3.03;2.83;;;22.70;51.20;;;;;;5061307;28;20489;-81
2023/03/18 07:27:07;;;;;;;3.80;3.50;;;22.70;51.10;;;;;;5069066;28;20552;-82
2023/03/18 07:29:36;;;;;;;4.13;3.80;;;22.70;51.10;;;;;;5075005;28;20457;-83
2023/03/18 07:32:05;;;;;;;3.90;3.07;;;22.70;51.00;;;;;;5063691;28;20477;-85
2023/03/18 07:34:34;;;;;;;3.70;3.40;;;22.70;51.00;;;;;;5051668;28;20518;-82
2023/03/18 07:37:02;;;;;;;3.50;3.20;;;22.80;50.90;;;;;;5068115;28;20466;-84
2023/03/18 07:39:31;;;;;;;4.50;3.83;;;22.80;50.70;;;;;;5064626;28;20510;-82
2023/03/18 07:41:59;;;;;;;3.67;3.10;;;22.80;50.60;;;;;;5074234;28;20453;-83
2023/03/18 07:44:30;;;;;;;4.23;3.47;;;22.80;50.50;;;;;;5048770;28;20474;-82
2023/03/18 07:46:59;;;;;;;3.40;3.10;;;22.80;50.50;;;;;;5044739;28;20829;-82
2023/03/18 07:49:28;;;;;;;4.10;3.37;;;22.80;50.40;;;;;;5070027;28;20455;-84
2023/03/18 07:51:57;;;;;;;2.87;2.67;;;22.80;50.40;;;;;;5065011;28;20478;-84
2023/03/18 07:54:25;;;;;;;6.00;3.83;;;22.80;50.30;;;;;;5059875;28;22051;-86
2023/03/18 07:56:53;;;;;;;3.53;3.17;;;22.70;50.30;;;;;;5062005;28;20478;-83
2023/03/18 07:59:21;;;;;;;4.00;3.70;;;22.70;50.30;;;;;;5063666;28;20456;-83
2023/03/18 08:01:49;;;;;;;5.30;3.20;;;22.70;50.30;;;;;;5068890;28;20465;-83
2023/03/18 08:04:19;;;;;;;3.50;3.30;;;22.70;50.20;;;;;;5070400;28;20857;-83
2023/03/18 08:06:48;;;;;;;4.83;3.90;;;22.70;50.20;;;;;;5055578;28;20891;-83
2023/03/18 08:09:16;;;;;;;3.47;3.27;;;22.70;50.20;;;;;;5064251;28;20673;-83
2023/03/18 08:11:44;;;;;;;3.80;3.50;;;22.70;50.20;;;;;;5072659;28;20458;-83
2023/03/18 08:14:12;;;;;;;3.33;3.13;;;22.70;50.20;;;;;;5064152;28;20496;-82
2023/03/18 08:16:41;;;;;;;3.80;3.50;;;22.70;50.10;;;;;;5063922;28;20457;-83
2023/03/18 08:19:09;;;;;;;3.73;3.30;;;22.70;50.10;;;;;;5067895;28;20590;-84
2023/03/18 08:21:39;;;;;;;6.10;3.53;;;22.70;50.20;;;;;;5066694;28;20469;-82
2023/03/18 08:24:08;;;;;;;4.07;3.77;;;22.70;50.20;;;;;;5073643;28;20879;-83
2023/03/18 08:26:36;;;;;;;3.17;2.93;;;22.70;50.30;;;;;;5062770;28;20964;-83
2023/03/18 08:29:04;;;;;;;3.50;3.20;;;22.70;50.40;;;;;;5057629;28;21176;-83
2023/03/18 08:31:33;;;;;;;3.10;2.87;;;22.70;50.40;;;;;;5064099;28;20552;-83
2023/03/18 08:34:01;;;;;;;3.83;3.53;;;22.70;50.50;;;;;;5050862;28;21008;-85
2023/03/18 08:36:30;;;;;;;3.40;3.10;;;22.70;50.50;;;;;;5065350;28;20544;-84
2023/03/18 08:38:59;;;;;;;10.30;3.43;;;22.70;51.00;;;;;;5072979;28;20950;-84
2023/03/18 08:41:27;;;;;;;3.83;3.40;;;22.80;51.20;;;;;;5068277;28;20526;-82
2023/03/18 08:43:56;;;;;;;3.93;2.93;;;22.80;51.20;;;;;;5071821;28;20941;-83
2023/03/18 08:46:24;;;;;;;3.40;3.00;;;22.80;51.30;;;;;;5072748;28;20504;-88
2023/03/18 08:48:53;;;;;;;3.70;3.00;;;22.90;51.40;;;;;;5071276;28;20472;-81
2023/03/18 08:51:22;;;;;;;4.67;3.07;;;22.90;51.70;;;;;;5068515;28;20490;-82
2023/03/18 08:53:50;;;;;;;5.40;3.40;;;22.90;51.60;;;;;;5073380;28;20467;-82
2023/03/18 08:56:19;;;;;;;4.60;4.00;;;22.90;51.60;;;;;;5060019;28;20452;-81
2023/03/18 08:58:48;;;;;;;4.80;3.23;;;23.00;51.60;;;;;;5077162;28;20545;-81
2023/03/18 09:01:16;;;;;;;5.87;3.40;;;23.00;51.60;;;;;;5064299;28;20481;-80
2023/03/18 09:03:45;;;;;;;8.63;3.60;;;23.00;51.60;;;;;;5060583;28;21053;-81
2023/03/18 09:06:14;;;;;;;3.27;3.00;;;23.00;51.60;;;;;;5053362;28;20475;-81
2023/03/18 09:08:42;;;;;;;3.40;3.10;;;23.00;51.60;;;;;;5068828;28;20544;-79
2023/03/18 09:11:10;;;;;;;3.60;3.30;;;23.00;51.60;;;;;;5058154;28;21033;-82
2023/03/18 09:13:40;;;;;;;4.43;3.30;;;23.00;51.70;;;;;;5049646;28;21003;-82
2023/03/18 09:16:09;;;;;;;5.10;3.60;;;23.00;51.70;;;;;;5058982;28;20984;-81
2023/03/18 09:18:38;;;;;;;5.27;3.50;;;23.00;51.70;;;;;;5067610;28;20813;-81
2023/03/18 09:21:07;;;;;;;3.10;2.80;;;23.00;51.70;;;;;;5049854;28;20465;-81
2023/03/18 09:23:35;;;;;;;6.10;3.33;;;23.00;51.70;;;;;;5032892;28;20547;-81
2023/03/18 09:26:03;;;;;;;4.47;3.30;;;23.00;51.70;;;;;;5054226;28;20531;-81
2023/03/18 09:28:31;;;;;;;4.20;3.37;;;23.00;51.70;;;;;;5050453;28;20455;-81
2023/03/18 09:31:01;;;;;;;4.90;3.33;;;23.00;51.70;;;;;;5057123;28;20958;-81
2023/03/18 09:33:29;;;;;;;3.50;3.20;;;23.00;51.70;;;;;;5055511;28;20474;-81
2023/03/18 09:35:58;;;;;;;4.60;3.30;;;23.00;51.70;;;;;;5050513;28;20446;-81
2023/03/18 09:38:26;;;;;;;3.27;3.07;;;23.00;51.70;;;;;;5049437;28;20513;-81
2023/03/18 09:41:06;;;;;;;3.20;2.90;;;23.00;51.70;;;;;;5050876;28;20537;-81
2023/03/18 09:43:56;;;;;;;2.70;2.50;;;23.00;51.70;;;;;;5053506;28;20553;-81
2023/03/18 09:46:35;;;;;;;3.43;2.73;;;23.00;51.70;;;;;;5051027;28;20538;-81
2023/03/18 09:49:23;;;;;;;3.60;2.87;;;23.00;51.70;;;;;;5059352;28;20537;-81
2023/03/18 09:52:02;;;;;;;2.73;2.53;;;23.00;51.70;;;;;;5036031;28;20514;-81
2023/03/18 09:54:37;;;;;;;3.40;2.90;;;23.00;51.70;;;;;;5052087;28;20478;-81
2023/03/18 09:57:11;;;;;;;3.50;3.00;;;23.00;51.70;;;;;;5068369;28;20498;-81
2023/03/18 09:59:44;;;;;;;3.17;2.87;;;23.00;51.70;;;;;;5073184;28;20460;-81
2023/03/18 10:02:21;;;;;;;3.73;3.43;;;23.00;51.80;;;;;;5056660;28;20902;-81
2023/03/18 10:04:55;;;;;;;3.33;2.60;;;23.00;51.80;;;;;;5075656;28;20498;-81
2023/03/18 10:07:27;;;;;;;3.93;3.10;;;23.00;51.80;;;;;;5074937;28;20454;-81
2023/03/18 10:09:59;;;;;;;3.07;2.77;;;23.00;51.70;;;;;;5067890;28;20544;-81
2023/03/18 10:12:31;;;;;;;3.60;3.30;;;23.00;51.70;;;;;;5072593;28;20580;-81
2023/03/18 10:15:22;;;;;;;3.77;3.07;;;23.00;51.70;;;;;;5065880;28;20716;-80
2023/03/18 10:17:56;;;;;;;3.83;2.47;;;23.10;51.70;;;;;;5069772;28;20458;-80
2023/03/18 10:20:35;;;;;;;4.47;3.20;;;23.10;51.70;;;;;;5073143;28;20452;-80
2023/03/18 10:23:11;;;;;;;3.10;2.90;;;23.10;51.70;;;;;;5054725;28;20515;-81
2023/03/18 10:25:45;;;;;;;2.50;2.30;;;23.10;51.70;;;;;;5076719;28;21062;-78
2023/03/18 10:28:33;;;;;;;3.57;2.67;;;23.10;51.70;;;;;;5073750;28;20943;-81
2023/03/18 10:31:10;;;;;;;2.20;2.00;;;23.20;51.60;;;;;;5076835;28;20461;-81
2023/03/18 10:33:50;;;;;;;2.70;2.50;;;23.20;51.60;;;;;;5072234;28;21002;-81
2023/03/18 10:36:34;;;;;;;3.87;2.40;;;23.20;51.60;;;;;;5069382;28;20496;-82
2023/03/18 10:39:03;;;;;;;2.10;2.00;;;23.30;51.60;;;;;;5069780;28;22138;-80
2023/03/18 10:41:35;;;;;;;2.57;2.37;;;23.30;51.80;;;;;;5074595;28;20468;-75
2023/03/18 10:44:11;;;;;;;3.17;2.97;;;23.30;51.80;;;;;;5070958;28;20459;-80
2023/03/18 10:46:40;;;;;;;3.30;2.33;;;23.30;51.90;;;;;;5079587;28;20537;-80
2023/03/18 10:49:15;;;;;;;2.30;2.10;;;23.40;51.80;;;;;;5071833;28;20453;-82
2023/03/18 10:51:48;;;;;;;2.33;2.23;;;23.40;51.70;;;;;;5076636;28;20458;-81
2023/03/18 10:54:22;;;;;;;2.90;1.93;;;23.40;51.60;;;;;;5073870;28;21013;-82
2023/03/18 10:56:52;;;;;;;4.47;2.43;;;23.50;51.50;;;;;;5052553;28;20455;-81
2023/03/18 10:59:21;;;;;;;4.63;3.43;;;23.60;51.10;;;;;;5072616;28;20445;-81
2023/03/18 11:01:54;;;;;;;3.67;3.00;;;23.80;51.00;;;;;;5066967;28;20457;-81
2023/03/18 11:04:27;;;;;;;4.60;2.50;;;24.00;50.60;;;;;;5068816;28;20511;-81
2023/03/18 11:06:57;;;;;;;3.17;2.37;;;24.20;50.30;;;;;;5075830;28;20497;-83
2023/03/18 11:09:30;;;;;;;3.10;2.47;;;24.40;49.90;;;;;;5056993;28;20888;-82
2023/03/18 11:12:04;;;;;;;2.00;1.80;;;24.60;49.30;;;;;;5074649;28;20451;-82
2023/03/18 11:14:33;;;;;;;2.30;2.10;;;24.80;48.00;;;;;;5065851;28;21115;-81
2023/03/18 11:17:03;;;;;;;2.80;2.60;;;24.90;46.90;;;;;;5077504;28;20961;-80
2023/03/18 11:19:38;;;;;;;1.90;1.80;;;25.00;46.50;;;;;;5060238;28;20903;-80
2023/03/18 11:22:18;;;;;;;1.57;1.37;;;25.10;46.20;;;;;;5044316;28;20461;-81
2023/03/18 11:24:47;;;;;;;2.23;2.00;;;25.20;45.30;;;;;;5058476;28;20482;-81
2023/03/18 11:27:33;;;;;;;2.70;2.40;;;25.20;44.50;;;;;;5056268;28;20455;-79
2023/03/18 11:30:14;;;;;;;1.43;1.27;;;25.20;44.60;;;;;;5010247;28;20466;-81
2023/03/18 11:32:58;;;;;;;2.77;2.13;;;25.30;45.00;;;;;;5036692;28;20548;-78
2023/03/18 11:35:39;;;;;;;1.70;1.60;;;25.30;44.50;;;;;;5054176;28;20507;-81
2023/03/18 11:38:21;;;;;;;1.63;1.53;;;25.30;44.10;;;;;;5053077;28;20510;-79
2023/03/18 11:41:09;;;;;;;1.47;1.23;;;25.30;44.00;;;;;;5038150;28;20487;-79
2023/03/18 11:43:58;;;;;;;1.27;1.07;;;25.20;43.00;;;;;;5043743;28;20460;-79
2023/03/18 11:46:51;;;;;;;1.57;1.33;;;25.10;43.30;;;;;;5040712;28;20454;-79
2023/03/18 11:49:30;;;;;;;4.30;1.77;;;25.20;43.00;;;;;;5055387;28;20540;-79
2023/03/18 11:52:27;;;;;;;1.67;1.47;;;25.20;42.40;;;;;;5054217;28;20513;-78
2023/03/18 11:55:17;;;;;;;2.07;1.70;;;25.30;42.60;;;;;;5023772;28;20476;-81
2023/03/18 11:58:15;;;;;;;2.57;1.50;;;25.30;43.00;;;;;;5064095;28;20449;-79
2023/03/18 12:00:51;;;;;;;2.10;1.87;;;25.40;43.30;;;;;;5049840;28;20497;-79
2023/03/18 12:03:38;;;;;;;0.90;0.90;;;25.50;43.30;;;;;;5057957;28;20545;-80
2023/03/18 12:06:19;;;;;;;1.50;1.40;;;25.50;43.30;;;;;;5042709;28;20525;-80
2023/03/18 12:09:00;;;;;;;5.57;1.40;;;25.60;43.70;;;;;;5038446;28;20558;-81
2023/03/18 12:11:43;;;;;;;1.27;1.17;;;25.60;43.80;;;;;;5039590;28;20550;-79
2023/03/18 12:14:17;;;;;;;1.33;1.20;;;25.70;43.80;;;;;;5038409;28;20474;-80
2023/03/18 12:16:57;;;;;;;1.83;1.30;;;25.70;44.00;;;;;;5038779;28;20487;-80
2023/03/18 12:19:59;;;;;;;1.70;0.80;;;25.80;44.00;;;;;;5042955;28;20466;-80
2023/03/18 12:22:39;;;;;;;4.07;1.50;;;25.90;44.10;;;;;;5044123;28;20471;-81
2023/03/18 12:25:53;;;;;;;1.27;0.90;;;25.90;44.10;;;;;;5038077;28;20886;-81
2023/03/18 12:28:32;;;;;;;2.13;1.27;;;26.00;44.20;;;;;;5044293;28;20773;-80
2023/03/18 12:31:17;;;;;;;2.20;1.40;;;26.00;44.40;;;;;;5042721;28;20962;-82
2023/03/18 12:33:56;;;;;;;1.10;1.00;;;26.00;44.60;;;;;;5046947;28;20544;-81
2023/03/18 12:36:47;;;;;;;3.57;3.23;;;26.10;44.70;;;;;;5049977;28;20584;-84
2023/03/18 12:39:58;;;;;;;12.00;3.13;;;26.10;44.70;;;;;;5055251;28;20806;-85
2023/03/18 12:42:41;;;;;;;6.20;1.60;;;26.10;45.10;;;;;;5032766;28;20479;-86
2023/03/18 12:45:13;;;;;;;5.77;2.20;;;26.20;45.10;;;;;;5053144;28;20458;-84
2023/03/18 12:47:46;;;;;;;2.60;1.77;;;26.20;45.10;;;;;;5058957;28;20481;-87
2023/03/18 12:50:18;;;;;;;5.77;1.73;;;26.20;45.20;;;;;;5049040;28;20474;-92
2023/03/18 12:52:49;;;;;;;9.73;3.17;;;26.20;45.20;;;;;;5044554;28;21064;-81
2023/03/18 12:55:23;;;;;;;7.63;2.30;;;26.20;45.70;;;;;;5056723;28;20999;-82
2023/03/18 12:57:57;;;;;;;5.37;1.87;;;26.20;45.70;;;;;;5051026;28;20461;-81
2023/03/18 13:00:30;;;;;;;8.57;2.00;;;26.10;46.10;;;;;;5057464;28;21123;-81
2023/03/18 13:03:04;;;;;;;11.60;2.73;;;26.00;46.40;;;;;;5052634;28;20956;-83
2023/03/18 13:05:44;;;;;;;6.03;2.03;;;26.00;46.50;;;;;;5054276;28;20542;-80
2023/03/18 13:08:52;;;;;;;5.83;1.90;;;25.90;46.80;;;;;;5049126;28;20498;-80
2023/03/18 13:11:36;;;;;;;5.13;2.53;;;26.00;46.70;;;;;;5023567;28;20467;-80
2023/03/18 13:14:12;;;;;;;8.90;1.80;;;26.10;46.60;;;;;;5047698;28;20447;-80